sensor_id;sensor_type;location;lat;lon;timestamp;P1;durP1;ratioP1;P2;durP2;ratioP2
22963;SDS011;11648;49.306;6.934;2023-09-19T00:00:44;2.93;;;1.30;;
22963;SDS011;11648;49.306;6.934;2023-09-19T00:03:14;3.13;;;1.40;;
22963;SDS011;11648;49.306;6.934;2023-09-19T00:05:41;3.83;;;1.47;;
22963;SDS011;11648;49.306;6.934;2023-09-19T00:08:12;3.50;;;1.40;;
22963;SDS011;11648;49.306;6.934;2023-09-19T00:10:42;2.97;;;1.20;;
22963;SDS011;11648;49.306;6.934;2023-09-19T00:13:10;3.90;;;1.40;;
22963;SDS011;11648;49.306;6.934;2023-09-19T00:15:46;3.10;;;1.47;;
22963;SDS011;11648;49.306;6.934;2023-09-19T00:18:17;3.67;;;1.30;;
22963;SDS011;11648;49.306;6.934;2023-09-19T00:20:47;3.90;;;1.30;;
22963;SDS011;11648;49.306;6.934;2023-09-19T00:23:16;5.03;;;1.73;;
22963;SDS011;11648;49.306;6.934;2023-09-19T00:25:43;3.77;;;1.60;;
22963;SDS011;11648;49.306;6.934;2023-09-19T00:28:09;3.83;;;1.50;;
22963;SDS011;11648;49.306;6.934;2023-09-19T00:30:36;3.93;;;1.60;;
22963;SDS011;11648;49.306;6.934;2023-09-19T00:33:05;3.47;;;1.60;;
22963;SDS011;11648;49.306;6.934;2023-09-19T00:35:34;3.90;;;1.40;;
22963;SDS011;11648;49.306;6.934;2023-09-19T00:38:03;4.97;;;1.37;;
22963;SDS011;11648;49.306;6.934;2023-09-19T00:40:30;3.17;;;1.70;;
22963;SDS011;11648;49.306;6.934;2023-09-19T00:42:57;4.70;;;1.57;;
22963;SDS011;11648;49.306;6.934;2023-09-19T00:45:27;3.43;;;1.60;;
22963;SDS011;11648;49.306;6.934;2023-09-19T00:47:57;3.50;;;1.50;;
22963;SDS011;11648;49.306;6.934;2023-09-19T00:50:30;3.87;;;1.70;;
22963;SDS011;11648;49.306;6.934;2023-09-19T00:52:58;4.70;;;1.70;;
22963;SDS011;11648;49.306;6.934;2023-09-19T00:55:25;3.83;;;1.67;;
22963;SDS011;11648;49.306;6.934;2023-09-19T00:57:56;3.93;;;1.70;;
22963;SDS011;11648;49.306;6.934;2023-09-19T01:00:23;6.13;;;2.00;;
22963;SDS011;11648;49.306;6.934;2023-09-19T01:02:51;3.63;;;1.70;;
22963;SDS011;11648;49.306;6.934;2023-09-19T01:05:18;3.93;;;1.70;;
22963;SDS011;11648;49.306;6.934;2023-09-19T01:07:45;4.50;;;1.83;;
22963;SDS011;11648;49.306;6.934;2023-09-19T01:10:15;3.07;;;1.53;;
22963;SDS011;11648;49.306;6.934;2023-09-19T01:12:59;3.77;;;1.80;;
22963;SDS011;11648;49.306;6.934;2023-09-19T01:20:45;6.77;;;2.30;;
22963;SDS011;11648;49.306;6.934;2023-09-19T01:23:25;7.23;;;2.10;;
22963;SDS011;11648;49.306;6.934;2023-09-19T01:26:04;4.70;;;1.90;;
22963;SDS011;11648;49.306;6.934;2023-09-19T01:31:21;4.13;;;1.77;;
22963;SDS011;11648;49.306;6.934;2023-09-19T01:34:00;5.63;;;2.37;;
22963;SDS011;11648;49.306;6.934;2023-09-19T01:36:28;3.70;;;1.70;;
22963;SDS011;11648;49.306;6.934;2023-09-19T01:38:57;4.77;;;2.00;;
22963;SDS011;11648;49.306;6.934;2023-09-19T01:41:35;4.73;;;1.90;;
22963;SDS011;11648;49.306;6.934;2023-09-19T01:50:34;3.57;;;1.90;;
22963;SDS011;11648;49.306;6.934;2023-09-19T01:53:28;6.27;;;2.00;;
22963;SDS011;11648;49.306;6.934;2023-09-19T01:56:01;3.93;;;1.60;;
22963;SDS011;11648;49.306;6.934;2023-09-19T01:58:34;4.77;;;2.17;;
22963;SDS011;11648;49.306;6.934;2023-09-19T02:01:04;4.20;;;2.20;;
22963;SDS011;11648;49.306;6.934;2023-09-19T02:03:36;5.43;;;2.20;;
22963;SDS011;11648;49.306;6.934;2023-09-19T02:06:06;4.80;;;2.10;;
22963;SDS011;11648;49.306;6.934;2023-09-19T02:08:37;6.63;;;2.27;;
22963;SDS011;11648;49.306;6.934;2023-09-19T02:11:05;6.33;;;2.10;;
22963;SDS011;11648;49.306;6.934;2023-09-19T02:13:32;6.77;;;2.30;;
22963;SDS011;11648;49.306;6.934;2023-09-19T02:16:00;5.10;;;1.93;;
22963;SDS011;11648;49.306;6.934;2023-09-19T02:18:27;4.67;;;2.07;;
22963;SDS011;11648;49.306;6.934;2023-09-19T02:20:55;5.63;;;2.60;;
22963;SDS011;11648;49.306;6.934;2023-09-19T02:23:22;4.93;;;2.20;;
22963;SDS011;11648;49.306;6.934;2023-09-19T02:25:52;4.63;;;2.03;;
22963;SDS011;11648;49.306;6.934;2023-09-19T02:28:20;4.77;;;2.27;;
22963;SDS011;11648;49.306;6.934;2023-09-19T02:30:50;5.83;;;2.30;;
22963;SDS011;11648;49.306;6.934;2023-09-19T02:33:16;5.53;;;2.23;;
22963;SDS011;11648;49.306;6.934;2023-09-19T02:35:44;7.13;;;1.90;;
22963;SDS011;11648;49.306;6.934;2023-09-19T02:38:11;5.33;;;2.30;;
22963;SDS011;11648;49.306;6.934;2023-09-19T02:40:38;6.77;;;2.30;;
22963;SDS011;11648;49.306;6.934;2023-09-19T02:43:06;4.73;;;2.37;;
22963;SDS011;11648;49.306;6.934;2023-09-19T02:45:35;5.80;;;2.17;;
22963;SDS011;11648;49.306;6.934;2023-09-19T02:48:02;6.90;;;2.27;;
22963;SDS011;11648;49.306;6.934;2023-09-19T02:50:29;7.93;;;2.17;;
22963;SDS011;11648;49.306;6.934;2023-09-19T02:52:56;6.97;;;2.07;;
22963;SDS011;11648;49.306;6.934;2023-09-19T02:55:23;4.37;;;2.20;;
22963;SDS011;11648;49.306;6.934;2023-09-19T02:57:51;7.30;;;1.83;;
22963;SDS011;11648;49.306;6.934;2023-09-19T03:00:21;6.53;;;2.00;;
22963;SDS011;11648;49.306;6.934;2023-09-19T03:02:49;5.00;;;1.90;;
22963;SDS011;11648;49.306;6.934;2023-09-19T03:05:21;7.80;;;2.20;;
22963;SDS011;11648;49.306;6.934;2023-09-19T03:07:50;5.93;;;1.90;;
22963;SDS011;11648;49.306;6.934;2023-09-19T03:10:18;3.73;;;1.83;;
22963;SDS011;11648;49.306;6.934;2023-09-19T03:12:47;6.07;;;1.67;;
22963;SDS011;11648;49.306;6.934;2023-09-19T03:15:14;6.63;;;2.03;;
22963;SDS011;11648;49.306;6.934;2023-09-19T03:17:44;6.33;;;1.80;;
22963;SDS011;11648;49.306;6.934;2023-09-19T03:20:12;5.83;;;1.70;;
22963;SDS011;11648;49.306;6.934;2023-09-19T03:22:41;4.60;;;1.67;;
22963;SDS011;11648;49.306;6.934;2023-09-19T03:25:08;7.50;;;1.70;;
22963;SDS011;11648;49.306;6.934;2023-09-19T03:27:40;5.37;;;1.70;;
22963;SDS011;11648;49.306;6.934;2023-09-19T03:30:07;5.17;;;1.63;;
22963;SDS011;11648;49.306;6.934;2023-09-19T03:32:36;4.53;;;1.50;;
22963;SDS011;11648;49.306;6.934;2023-09-19T03:35:03;4.10;;;1.60;;
22963;SDS011;11648;49.306;6.934;2023-09-19T03:37:34;7.40;;;2.10;;
22963;SDS011;11648;49.306;6.934;2023-09-19T03:40:01;6.87;;;1.70;;
22963;SDS011;11648;49.306;6.934;2023-09-19T03:42:31;6.03;;;1.73;;
22963;SDS011;11648;49.306;6.934;2023-09-19T03:44:59;6.30;;;2.10;;
22963;SDS011;11648;49.306;6.934;2023-09-19T03:47:30;5.27;;;1.67;;
22963;SDS011;11648;49.306;6.934;2023-09-19T03:49:59;4.33;;;1.60;;
22963;SDS011;11648;49.306;6.934;2023-09-19T03:52:26;4.90;;;1.40;;
22963;SDS011;11648;49.306;6.934;2023-09-19T03:54:53;3.50;;;1.50;;
22963;SDS011;11648;49.306;6.934;2023-09-19T03:57:19;5.93;;;1.60;;
22963;SDS011;11648;49.306;6.934;2023-09-19T03:59:47;5.70;;;1.70;;
22963;SDS011;11648;49.306;6.934;2023-09-19T04:02:14;4.40;;;1.70;;
22963;SDS011;11648;49.306;6.934;2023-09-19T04:04:50;6.80;;;2.07;;
22963;SDS011;11648;49.306;6.934;2023-09-19T04:07:20;5.63;;;1.60;;
22963;SDS011;11648;49.306;6.934;2023-09-19T04:09:49;7.03;;;1.60;;
22963;SDS011;11648;49.306;6.934;2023-09-19T04:12:16;5.97;;;1.80;;
22963;SDS011;11648;49.306;6.934;2023-09-19T04:14:45;6.50;;;2.00;;
22963;SDS011;11648;49.306;6.934;2023-09-19T04:17:12;5.93;;;1.90;;
22963;SDS011;11648;49.306;6.934;2023-09-19T04:19:40;5.13;;;1.53;;
22963;SDS011;11648;49.306;6.934;2023-09-19T04:22:08;6.33;;;1.90;;
22963;SDS011;11648;49.306;6.934;2023-09-19T04:24:35;5.37;;;1.60;;
22963;SDS011;11648;49.306;6.934;2023-09-19T04:27:04;6.87;;;1.83;;
22963;SDS011;11648;49.306;6.934;2023-09-19T04:29:31;6.10;;;1.70;;
22963;SDS011;11648;49.306;6.934;2023-09-19T04:31:59;4.37;;;2.00;;
22963;SDS011;11648;49.306;6.934;2023-09-19T04:34:25;4.60;;;1.53;;
22963;SDS011;11648;49.306;6.934;2023-09-19T04:36:52;4.53;;;1.70;;
22963;SDS011;11648;49.306;6.934;2023-09-19T04:39:19;4.53;;;1.60;;
22963;SDS011;11648;49.306;6.934;2023-09-19T04:41:47;5.70;;;1.50;;
22963;SDS011;11648;49.306;6.934;2023-09-19T04:44:14;3.93;;;1.80;;
22963;SDS011;11648;49.306;6.934;2023-09-19T04:46:42;5.30;;;1.80;;
22963;SDS011;11648;49.306;6.934;2023-09-19T04:49:09;6.47;;;1.90;;
22963;SDS011;11648;49.306;6.934;2023-09-19T04:51:36;7.07;;;2.00;;
22963;SDS011;11648;49.306;6.934;2023-09-19T04:54:03;5.37;;;1.90;;
22963;SDS011;11648;49.306;6.934;2023-09-19T04:56:30;6.37;;;1.90;;
22963;SDS011;11648;49.306;6.934;2023-09-19T04:58:58;4.67;;;1.67;;
22963;SDS011;11648;49.306;6.934;2023-09-19T05:01:26;7.83;;;2.00;;
22963;SDS011;11648;49.306;6.934;2023-09-19T05:03:53;6.50;;;1.97;;
22963;SDS011;11648;49.306;6.934;2023-09-19T05:06:20;5.40;;;1.70;;
22963;SDS011;11648;49.306;6.934;2023-09-19T05:08:48;8.20;;;1.93;;
22963;SDS011;11648;49.306;6.934;2023-09-19T05:11:21;6.33;;;1.93;;
22963;SDS011;11648;49.306;6.934;2023-09-19T05:13:49;7.43;;;1.90;;
22963;SDS011;11648;49.306;6.934;2023-09-19T05:16:22;7.10;;;1.80;;
22963;SDS011;11648;49.306;6.934;2023-09-19T05:18:49;4.37;;;1.50;;
22963;SDS011;11648;49.306;6.934;2023-09-19T05:21:16;6.70;;;1.90;;
22963;SDS011;11648;49.306;6.934;2023-09-19T05:23:44;7.27;;;2.03;;
22963;SDS011;11648;49.306;6.934;2023-09-19T05:26:11;7.23;;;2.00;;
22963;SDS011;11648;49.306;6.934;2023-09-19T05:28:39;4.17;;;1.73;;
22963;SDS011;11648;49.306;6.934;2023-09-19T05:31:05;4.33;;;1.53;;
22963;SDS011;11648;49.306;6.934;2023-09-19T05:33:32;6.13;;;1.60;;
22963;SDS011;11648;49.306;6.934;2023-09-19T05:35:59;8.77;;;1.90;;
22963;SDS011;11648;49.306;6.934;2023-09-19T05:38:26;6.93;;;1.67;;
22963;SDS011;11648;49.306;6.934;2023-09-19T05:40:54;7.30;;;1.83;;
22963;SDS011;11648;49.306;6.934;2023-09-19T05:43:21;6.13;;;1.67;;
22963;SDS011;11648;49.306;6.934;2023-09-19T05:45:48;6.43;;;1.70;;
22963;SDS011;11648;49.306;6.934;2023-09-19T05:48:19;4.80;;;1.47;;
22963;SDS011;11648;49.306;6.934;2023-09-19T05:50:47;6.23;;;1.80;;
22963;SDS011;11648;49.306;6.934;2023-09-19T05:53:15;6.23;;;1.53;;
22963;SDS011;11648;49.306;6.934;2023-09-19T05:55:42;5.43;;;1.77;;
22963;SDS011;11648;49.306;6.934;2023-09-19T05:58:09;5.90;;;1.70;;
22963;SDS011;11648;49.306;6.934;2023-09-19T06:00:37;4.77;;;1.60;;
22963;SDS011;11648;49.306;6.934;2023-09-19T06:03:05;6.13;;;1.63;;
22963;SDS011;11648;49.306;6.934;2023-09-19T06:05:33;6.50;;;1.60;;
22963;SDS011;11648;49.306;6.934;2023-09-19T06:07:59;5.80;;;1.73;;
22963;SDS011;11648;49.306;6.934;2023-09-19T06:10:27;5.07;;;1.60;;
22963;SDS011;11648;49.306;6.934;2023-09-19T06:12:55;9.90;;;1.90;;
22963;SDS011;11648;49.306;6.934;2023-09-19T06:15:21;3.13;;;1.60;;
22963;SDS011;11648;49.306;6.934;2023-09-19T06:17:52;4.90;;;1.50;;
22963;SDS011;11648;49.306;6.934;2023-09-19T06:20:23;8.03;;;1.90;;
22963;SDS011;11648;49.306;6.934;2023-09-19T06:22:52;8.50;;;2.17;;
22963;SDS011;11648;49.306;6.934;2023-09-19T06:25:20;6.30;;;1.60;;
22963;SDS011;11648;49.306;6.934;2023-09-19T06:27:49;5.73;;;1.77;;
22963;SDS011;11648;49.306;6.934;2023-09-19T06:30:20;5.17;;;1.70;;
22963;SDS011;11648;49.306;6.934;2023-09-19T06:32:49;6.80;;;1.60;;
22963;SDS011;11648;49.306;6.934;2023-09-19T06:35:23;7.57;;;2.10;;
22963;SDS011;11648;49.306;6.934;2023-09-19T06:37:51;5.63;;;1.67;;
22963;SDS011;11648;49.306;6.934;2023-09-19T06:40:19;5.90;;;1.40;;
22963;SDS011;11648;49.306;6.934;2023-09-19T06:42:46;8.03;;;1.70;;
22963;SDS011;11648;49.306;6.934;2023-09-19T06:45:16;6.57;;;1.33;;
22963;SDS011;11648;49.306;6.934;2023-09-19T06:47:48;6.40;;;1.70;;
22963;SDS011;11648;49.306;6.934;2023-09-19T06:52:46;5.40;;;1.53;;
22963;SDS011;11648;49.306;6.934;2023-09-19T06:55:18;7.37;;;1.57;;
22963;SDS011;11648;49.306;6.934;2023-09-19T06:57:47;7.83;;;1.57;;
22963;SDS011;11648;49.306;6.934;2023-09-19T07:00:14;6.10;;;1.50;;
22963;SDS011;11648;49.306;6.934;2023-09-19T07:02:44;7.00;;;2.03;;
22963;SDS011;11648;49.306;6.934;2023-09-19T07:05:14;3.63;;;0.97;;
22963;SDS011;11648;49.306;6.934;2023-09-19T07:07:40;5.10;;;1.40;;
22963;SDS011;11648;49.306;6.934;2023-09-19T07:10:07;5.30;;;1.30;;
22963;SDS011;11648;49.306;6.934;2023-09-19T07:12:37;6.03;;;1.30;;
22963;SDS011;11648;49.306;6.934;2023-09-19T07:15:04;5.30;;;1.17;;
22963;SDS011;11648;49.306;6.934;2023-09-19T07:17:32;4.00;;;1.30;;
22963;SDS011;11648;49.306;6.934;2023-09-19T07:19:59;4.50;;;1.30;;
22963;SDS011;11648;49.306;6.934;2023-09-19T07:22:26;4.50;;;1.40;;
22963;SDS011;11648;49.306;6.934;2023-09-19T07:24:53;3.93;;;1.20;;
22963;SDS011;11648;49.306;6.934;2023-09-19T07:27:21;7.70;;;1.50;;
22963;SDS011;11648;49.306;6.934;2023-09-19T07:29:48;6.40;;;1.53;;
22963;SDS011;11648;49.306;6.934;2023-09-19T07:32:18;5.13;;;1.50;;
22963;SDS011;11648;49.306;6.934;2023-09-19T07:34:45;5.95;;;1.55;;
22963;SDS011;11648;49.306;6.934;2023-09-19T07:37:12;5.50;;;1.45;;
22963;SDS011;11648;49.306;6.934;2023-09-19T07:39:42;4.70;;;1.85;;
22963;SDS011;11648;49.306;6.934;2023-09-19T07:42:09;5.72;;;1.33;;
22963;SDS011;11648;49.306;6.934;2023-09-19T07:44:40;4.47;;;1.40;;
22963;SDS011;11648;49.306;6.934;2023-09-19T07:47:07;5.28;;;1.70;;
22963;SDS011;11648;49.306;6.934;2023-09-19T07:49:35;7.18;;;1.70;;
22963;SDS011;11648;49.306;6.934;2023-09-19T07:52:01;5.22;;;1.35;;
22963;SDS011;11648;49.306;6.934;2023-09-19T07:54:29;5.22;;;1.55;;
22963;SDS011;11648;49.306;6.934;2023-09-19T07:56:57;4.70;;;1.33;;
22963;SDS011;11648;49.306;6.934;2023-09-19T07:59:26;6.65;;;1.58;;
22963;SDS011;11648;49.306;6.934;2023-09-19T08:02:01;6.18;;;1.77;;
22963;SDS011;11648;49.306;6.934;2023-09-19T08:04:30;4.40;;;1.52;;
22963;SDS011;11648;49.306;6.934;2023-09-19T08:07:00;7.40;;;1.70;;
22963;SDS011;11648;49.306;6.934;2023-09-19T08:09:29;7.13;;;1.60;;
22963;SDS011;11648;49.306;6.934;2023-09-19T08:11:59;6.80;;;1.77;;
22963;SDS011;11648;49.306;6.934;2023-09-19T08:14:31;5.57;;;1.63;;
22963;SDS011;11648;49.306;6.934;2023-09-19T08:16:58;7.10;;;1.77;;
22963;SDS011;11648;49.306;6.934;2023-09-19T08:19:25;5.18;;;1.52;;
22963;SDS011;11648;49.306;6.934;2023-09-19T08:21:57;6.47;;;1.50;;
22963;SDS011;11648;49.306;6.934;2023-09-19T08:24:29;7.90;;;1.90;;
22963;SDS011;11648;49.306;6.934;2023-09-19T08:26:57;4.70;;;1.50;;
22963;SDS011;11648;49.306;6.934;2023-09-19T08:29:24;8.18;;;1.90;;
22963;SDS011;11648;49.306;6.934;2023-09-19T08:31:56;6.65;;;1.70;;
22963;SDS011;11648;49.306;6.934;2023-09-19T08:34:24;6.13;;;1.70;;
22963;SDS011;11648;49.306;6.934;2023-09-19T08:36:52;5.78;;;1.63;;
22963;SDS011;11648;49.306;6.934;2023-09-19T08:39:23;4.70;;;1.40;;
22963;SDS011;11648;49.306;6.934;2023-09-19T08:42:00;6.30;;;1.80;;
22963;SDS011;11648;49.306;6.934;2023-09-19T08:44:28;4.65;;;1.70;;
22963;SDS011;11648;49.306;6.934;2023-09-19T08:47:04;6.88;;;1.75;;
22963;SDS011;11648;49.306;6.934;2023-09-19T08:49:41;7.82;;;1.85;;
22963;SDS011;11648;49.306;6.934;2023-09-19T08:52:28;7.68;;;1.75;;
22963;SDS011;11648;49.306;6.934;2023-09-19T08:55:03;7.70;;;1.80;;
22963;SDS011;11648;49.306;6.934;2023-09-19T08:57:36;4.40;;;1.60;;
22963;SDS011;11648;49.306;6.934;2023-09-19T09:00:08;5.70;;;1.58;;
22963;SDS011;11648;49.306;6.934;2023-09-19T09:02:41;6.50;;;1.95;;
22963;SDS011;11648;49.306;6.934;2023-09-19T09:05:09;3.72;;;1.50;;
22963;SDS011;11648;49.306;6.934;2023-09-19T09:07:37;5.72;;;1.42;;
22963;SDS011;11648;49.306;6.934;2023-09-19T09:10:07;6.20;;;1.60;;
22963;SDS011;11648;49.306;6.934;2023-09-19T09:12:35;5.88;;;1.60;;
22963;SDS011;11648;49.306;6.934;2023-09-19T09:15:07;5.82;;;1.45;;
22963;SDS011;11648;49.306;6.934;2023-09-19T09:17:40;5.20;;;1.77;;
22963;SDS011;11648;49.306;6.934;2023-09-19T09:20:08;3.75;;;1.52;;
22963;SDS011;11648;49.306;6.934;2023-09-19T09:22:36;6.53;;;1.75;;
22963;SDS011;11648;49.306;6.934;2023-09-19T09:25:09;4.30;;;1.50;;
22963;SDS011;11648;49.306;6.934;2023-09-19T09:27:36;5.00;;;1.38;;
22963;SDS011;11648;49.306;6.934;2023-09-19T09:30:02;4.93;;;1.88;;
22963;SDS011;11648;49.306;6.934;2023-09-19T09:32:30;5.82;;;1.70;;
22963;SDS011;11648;49.306;6.934;2023-09-19T09:35:01;6.40;;;1.98;;
22963;SDS011;11648;49.306;6.934;2023-09-19T09:37:31;4.50;;;1.60;;
22963;SDS011;11648;49.306;6.934;2023-09-19T09:40:04;5.32;;;1.48;;
22963;SDS011;11648;49.306;6.934;2023-09-19T09:42:40;5.78;;;1.75;;
22963;SDS011;11648;49.306;6.934;2023-09-19T09:45:12;4.03;;;1.42;;
22963;SDS011;11648;49.306;6.934;2023-09-19T09:47:46;5.38;;;1.60;;
22963;SDS011;11648;49.306;6.934;2023-09-19T09:50:25;5.07;;;1.50;;
22963;SDS011;11648;49.306;6.934;2023-09-19T09:53:19;4.13;;;1.40;;
22963;SDS011;11648;49.306;6.934;2023-09-19T09:55:59;6.75;;;1.55;;
22963;SDS011;11648;49.306;6.934;2023-09-19T09:58:33;6.65;;;1.60;;
22963;SDS011;11648;49.306;6.934;2023-09-19T10:01:07;5.72;;;1.50;;
22963;SDS011;11648;49.306;6.934;2023-09-19T10:03:41;4.43;;;1.30;;
22963;SDS011;11648;49.306;6.934;2023-09-19T10:06:18;4.75;;;1.40;;
22963;SDS011;11648;49.306;6.934;2023-09-19T10:09:01;3.83;;;1.35;;
22963;SDS011;11648;49.306;6.934;2023-09-19T10:11:33;6.28;;;1.77;;
22963;SDS011;11648;49.306;6.934;2023-09-19T10:14:06;4.30;;;1.38;;
22963;SDS011;11648;49.306;6.934;2023-09-19T10:16:35;2.60;;;0.90;;
22963;SDS011;11648;49.306;6.934;2023-09-19T10:19:16;4.13;;;1.10;;
22963;SDS011;11648;49.306;6.934;2023-09-19T10:21:56;6.25;;;1.38;;
22963;SDS011;11648;49.306;6.934;2023-09-19T10:24:25;6.30;;;1.50;;
22963;SDS011;11648;49.306;6.934;2023-09-19T10:26:55;5.28;;;1.38;;
22963;SDS011;11648;49.306;6.934;2023-09-19T10:29:22;4.63;;;1.30;;
22963;SDS011;11648;49.306;6.934;2023-09-19T10:31:52;4.43;;;1.08;;
22963;SDS011;11648;49.306;6.934;2023-09-19T10:34:20;3.08;;;1.00;;
22963;SDS011;11648;49.306;6.934;2023-09-19T10:36:48;3.22;;;1.27;;
22963;SDS011;11648;49.306;6.934;2023-09-19T10:39:18;3.65;;;1.20;;
22963;SDS011;11648;49.306;6.934;2023-09-19T10:41:47;3.58;;;1.30;;
22963;SDS011;11648;49.306;6.934;2023-09-19T10:44:23;2.67;;;1.05;;
22963;SDS011;11648;49.306;6.934;2023-09-19T10:46:52;4.25;;;1.27;;
22963;SDS011;11648;49.306;6.934;2023-09-19T10:49:20;4.22;;;1.13;;
22963;SDS011;11648;49.306;6.934;2023-09-19T10:51:49;2.63;;;0.93;;
22963;SDS011;11648;49.306;6.934;2023-09-19T10:54:22;3.03;;;0.93;;
22963;SDS011;11648;49.306;6.934;2023-09-19T10:56:53;3.70;;;1.17;;
22963;SDS011;11648;49.306;6.934;2023-09-19T10:59:21;4.22;;;1.50;;
22963;SDS011;11648;49.306;6.934;2023-09-19T11:01:49;2.60;;;1.13;;
22963;SDS011;11648;49.306;6.934;2023-09-19T11:04:22;3.92;;;1.30;;
22963;SDS011;11648;49.306;6.934;2023-09-19T11:07:06;3.70;;;1.17;;
22963;SDS011;11648;49.306;6.934;2023-09-19T11:16:02;2.38;;;1.02;;
22963;SDS011;11648;49.306;6.934;2023-09-19T11:26:51;3.00;;;1.15;;
22963;SDS011;11648;49.306;6.934;2023-09-19T11:29:41;2.95;;;1.00;;
22963;SDS011;11648;49.306;6.934;2023-09-19T11:32:07;3.40;;;1.05;;
22963;SDS011;11648;49.306;6.934;2023-09-19T11:42:47;3.10;;;0.82;;
22963;SDS011;11648;49.306;6.934;2023-09-19T11:48:09;4.35;;;1.20;;
22963;SDS011;11648;49.306;6.934;2023-09-19T11:50:39;4.10;;;1.13;;
22963;SDS011;11648;49.306;6.934;2023-09-19T11:53:11;2.60;;;0.88;;
22963;SDS011;11648;49.306;6.934;2023-09-19T11:55:38;2.13;;;0.82;;
22963;SDS011;11648;49.306;6.934;2023-09-19T11:58:07;3.05;;;1.00;;
22963;SDS011;11648;49.306;6.934;2023-09-19T12:00:40;2.60;;;0.90;;
22963;SDS011;11648;49.306;6.934;2023-09-19T12:03:10;2.50;;;0.90;;
22963;SDS011;11648;49.306;6.934;2023-09-19T12:05:38;2.85;;;0.90;;
22963;SDS011;11648;49.306;6.934;2023-09-19T12:08:08;2.22;;;0.75;;
22963;SDS011;11648;49.306;6.934;2023-09-19T12:10:45;3.15;;;1.10;;
22963;SDS011;11648;49.306;6.934;2023-09-19T12:13:17;2.55;;;0.85;;
22963;SDS011;11648;49.306;6.934;2023-09-19T12:15:45;3.25;;;0.88;;
22963;SDS011;11648;49.306;6.934;2023-09-19T12:18:27;2.55;;;0.90;;
22963;SDS011;11648;49.306;6.934;2023-09-19T12:21:00;2.58;;;0.90;;
22963;SDS011;11648;49.306;6.934;2023-09-19T12:23:29;2.65;;;0.80;;
22963;SDS011;11648;49.306;6.934;2023-09-19T12:25:56;3.13;;;1.10;;
22963;SDS011;11648;49.306;6.934;2023-09-19T12:28:26;3.38;;;0.80;;
22963;SDS011;11648;49.306;6.934;2023-09-19T12:30:55;4.18;;;1.10;;
22963;SDS011;11648;49.306;6.934;2023-09-19T12:33:22;5.88;;;1.20;;
22963;SDS011;11648;49.306;6.934;2023-09-19T12:35:52;4.07;;;1.00;;
22963;SDS011;11648;49.306;6.934;2023-09-19T12:38:25;4.35;;;1.00;;
22963;SDS011;11648;49.306;6.934;2023-09-19T12:40:59;4.18;;;1.10;;
22963;SDS011;11648;49.306;6.934;2023-09-19T12:43:30;4.13;;;1.05;;
22963;SDS011;11648;49.306;6.934;2023-09-19T12:45:59;3.65;;;1.17;;
22963;SDS011;11648;49.306;6.934;2023-09-19T12:48:27;3.58;;;1.20;;
22963;SDS011;11648;49.306;6.934;2023-09-19T12:50:59;3.78;;;1.00;;
22963;SDS011;11648;49.306;6.934;2023-09-19T12:53:40;3.72;;;1.00;;
22963;SDS011;11648;49.306;6.934;2023-09-19T12:56:13;3.92;;;0.95;;
22963;SDS011;11648;49.306;6.934;2023-09-19T12:58:52;3.42;;;1.17;;
22963;SDS011;11648;49.306;6.934;2023-09-19T13:01:22;2.97;;;0.95;;
22963;SDS011;11648;49.306;6.934;2023-09-19T13:04:12;3.90;;;1.20;;
22963;SDS011;11648;49.306;6.934;2023-09-19T13:06:50;2.95;;;1.00;;
22963;SDS011;11648;49.306;6.934;2023-09-19T13:09:21;2.80;;;1.03;;
22963;SDS011;11648;49.306;6.934;2023-09-19T13:11:51;3.27;;;0.90;;
22963;SDS011;11648;49.306;6.934;2023-09-19T13:14:20;2.80;;;0.90;;
22963;SDS011;11648;49.306;6.934;2023-09-19T13:19:35;2.88;;;0.95;;
22963;SDS011;11648;49.306;6.934;2023-09-19T13:22:49;2.40;;;1.00;;
22963;SDS011;11648;49.306;6.934;2023-09-19T13:25:03;3.07;;;0.80;;
22963;SDS011;11648;49.306;6.934;2023-09-19T13:27:34;3.60;;;1.20;;
22963;SDS011;11648;49.306;6.934;2023-09-19T13:30:01;2.67;;;0.77;;
22963;SDS011;11648;49.306;6.934;2023-09-19T13:32:29;3.70;;;1.13;;
22963;SDS011;11648;49.306;6.934;2023-09-19T13:34:55;3.73;;;1.00;;
22963;SDS011;11648;49.306;6.934;2023-09-19T13:37:22;4.37;;;1.03;;
22963;SDS011;11648;49.306;6.934;2023-09-19T13:39:49;2.83;;;0.90;;
22963;SDS011;11648;49.306;6.934;2023-09-19T13:42:16;2.97;;;1.00;;
22963;SDS011;11648;49.306;6.934;2023-09-19T13:44:44;3.47;;;1.07;;
22963;SDS011;11648;49.306;6.934;2023-09-19T13:47:11;3.53;;;1.00;;
22963;SDS011;11648;49.306;6.934;2023-09-19T13:49:40;3.27;;;1.00;;
22963;SDS011;11648;49.306;6.934;2023-09-19T13:52:07;2.73;;;0.80;;
22963;SDS011;11648;49.306;6.934;2023-09-19T13:54:35;4.50;;;0.93;;
22963;SDS011;11648;49.306;6.934;2023-09-19T13:57:02;4.23;;;0.90;;
22963;SDS011;11648;49.306;6.934;2023-09-19T13:59:28;2.90;;;1.07;;
22963;SDS011;11648;49.306;6.934;2023-09-19T14:01:57;2.87;;;0.87;;
22963;SDS011;11648;49.306;6.934;2023-09-19T14:04:24;2.37;;;0.77;;
22963;SDS011;11648;49.306;6.934;2023-09-19T14:06:51;5.50;;;0.90;;
22963;SDS011;11648;49.306;6.934;2023-09-19T14:09:17;2.07;;;0.80;;
22963;SDS011;11648;49.306;6.934;2023-09-19T14:11:46;2.83;;;0.70;;
22963;SDS011;11648;49.306;6.934;2023-09-19T14:14:14;3.60;;;0.97;;
22963;SDS011;11648;49.306;6.934;2023-09-19T14:16:41;2.87;;;0.80;;
22963;SDS011;11648;49.306;6.934;2023-09-19T14:19:08;3.00;;;1.10;;
22963;SDS011;11648;49.306;6.934;2023-09-19T14:21:35;2.13;;;0.77;;
22963;SDS011;11648;49.306;6.934;2023-09-19T14:24:05;3.47;;;0.73;;
22963;SDS011;11648;49.306;6.934;2023-09-19T14:26:36;2.73;;;0.70;;
22963;SDS011;11648;49.306;6.934;2023-09-19T14:29:03;2.00;;;0.80;;
22963;SDS011;11648;49.306;6.934;2023-09-19T14:31:30;3.60;;;0.90;;
22963;SDS011;11648;49.306;6.934;2023-09-19T14:33:57;2.53;;;0.80;;
22963;SDS011;11648;49.306;6.934;2023-09-19T14:36:25;2.90;;;0.80;;
22963;SDS011;11648;49.306;6.934;2023-09-19T14:38:53;2.03;;;0.83;;
22963;SDS011;11648;49.306;6.934;2023-09-19T14:41:23;2.23;;;0.90;;
22963;SDS011;11648;49.306;6.934;2023-09-19T14:43:52;3.93;;;1.00;;
22963;SDS011;11648;49.306;6.934;2023-09-19T14:46:19;3.03;;;0.80;;
22963;SDS011;11648;49.306;6.934;2023-09-19T14:48:45;2.37;;;0.60;;
22963;SDS011;11648;49.306;6.934;2023-09-19T14:51:13;2.63;;;0.80;;
22963;SDS011;11648;49.306;6.934;2023-09-19T14:53:40;1.93;;;0.70;;
22963;SDS011;11648;49.306;6.934;2023-09-19T14:56:08;2.90;;;1.20;;
22963;SDS011;11648;49.306;6.934;2023-09-19T14:58:36;6.47;;;1.70;;
22963;SDS011;11648;49.306;6.934;2023-09-19T15:01:06;3.67;;;1.40;;
22963;SDS011;11648;49.306;6.934;2023-09-19T15:03:36;2.57;;;0.90;;
22963;SDS011;11648;49.306;6.934;2023-09-19T15:06:07;2.70;;;0.80;;
22963;SDS011;11648;49.306;6.934;2023-09-19T15:08:36;2.13;;;0.80;;
22963;SDS011;11648;49.306;6.934;2023-09-19T15:11:07;1.83;;;0.70;;
22963;SDS011;11648;49.306;6.934;2023-09-19T15:13:35;1.57;;;0.60;;
22963;SDS011;11648;49.306;6.934;2023-09-19T15:16:03;3.73;;;0.80;;
22963;SDS011;11648;49.306;6.934;2023-09-19T15:18:35;2.13;;;0.67;;
22963;SDS011;11648;49.306;6.934;2023-09-19T15:21:08;1.90;;;0.70;;
22963;SDS011;11648;49.306;6.934;2023-09-19T15:23:39;3.00;;;0.80;;
22963;SDS011;11648;49.306;6.934;2023-09-19T15:26:08;3.43;;;0.60;;
22963;SDS011;11648;49.306;6.934;2023-09-19T15:28:38;2.20;;;0.70;;
22963;SDS011;11648;49.306;6.934;2023-09-19T15:31:07;1.93;;;0.70;;
22963;SDS011;11648;49.306;6.934;2023-09-19T15:33:35;2.47;;;0.73;;
22963;SDS011;11648;49.306;6.934;2023-09-19T15:36:11;3.63;;;0.90;;
22963;SDS011;11648;49.306;6.934;2023-09-19T15:41:30;2.73;;;0.80;;
22963;SDS011;11648;49.306;6.934;2023-09-19T15:43:59;2.47;;;0.80;;
22963;SDS011;11648;49.306;6.934;2023-09-19T15:46:28;2.00;;;0.70;;
22963;SDS011;11648;49.306;6.934;2023-09-19T15:48:56;1.40;;;0.63;;
22963;SDS011;11648;49.306;6.934;2023-09-19T15:51:24;2.63;;;0.83;;